Time;durP1;ratioP1;P1;durP2;ratioP2;P2;SDS_P1;SDS_P2;PMS_P1;PMS_P2;Temp;Humidity;BMP_temperature;BMP_pressure;BME280_temperature;BME280_humidity;BME280_pressure;Samples;Min_cycle;Max_cycle;Signal;HPM_P1;HPM_P2
2023/02/27 00:00:22;;;;;;;;;17.00;15.20;;;;;7.02;42.20;99140.44;6126313;28;98281;-57
2023/02/27 00:03:25;;;;;;;;;20.00;18.00;;;;;7.03;42.10;99140.25;6131810;28;97735;-57
2023/02/27 00:06:29;;;;;;;;;21.50;18.50;;;;;7.03;42.37;99140.25;6137506;28;96487;-56
2023/02/27 00:09:34;;;;;;;;;16.00;14.60;;;;;7.05;43.00;99146.25;6157673;28;96383;-56
2023/02/27 00:12:37;;;;;;;;;19.67;16.67;;;;;7.07;43.15;99138.00;6153506;28;96977;-57
2023/02/27 00:15:41;;;;;;;;;19.00;16.60;;;;;7.11;42.83;99144.63;6149836;28;96288;-57
2023/02/27 00:18:44;;;;;;;;;18.80;17.60;;;;;7.12;43.14;99138.25;6135284;28;97006;-56
2023/02/27 00:21:48;;;;;;;;;20.00;18.00;;;;;7.09;43.33;99138.63;6156153;28;96269;-56
2023/02/27 00:24:52;;;;;;;;;17.80;16.40;;;;;7.07;43.32;99135.31;6153493;28;96605;-56
2023/02/27 00:27:56;;;;;;;;;18.00;17.00;;;;;7.05;43.21;99140.03;6149431;28;96130;-57
2023/02/27 00:30:59;;;;;;;;;15.00;15.00;;;;;7.05;43.39;99137.34;6147303;28;96355;-57
2023/02/27 00:34:03;;;;;;;;;19.40;16.40;;;;;7.02;43.35;99143.13;6131598;28;96900;-57
2023/02/27 00:37:06;;;;;;;;;16.80;15.20;;;;;7.02;43.27;99153.84;6149614;28;97568;-56
2023/02/27 00:40:13;;;;;;;;;19.00;18.00;;;;;7.00;43.62;99150.50;6140743;28;96867;-56
2023/02/27 00:43:16;;;;;;;;;20.00;18.00;;;;;7.01;43.98;99144.97;6139176;28;96218;-56
2023/02/27 00:46:20;;;;;;;;;18.60;16.00;;;;;6.98;43.41;99150.72;6150334;28;96583;-56
2023/02/27 00:49:24;;;;;;;;;19.00;18.00;;;;;6.99;43.38;99146.19;6131686;28;96532;-57
2023/02/27 00:52:27;;;;;;;;;13.60;12.00;;;;;6.99;43.47;99149.69;6136974;28;96278;-56
2023/02/27 00:55:32;;;;;;;;;17.00;17.00;;;;;6.95;43.20;99143.03;6125067;28;96624;-56
2023/02/27 00:58:35;;;;;;;;;16.80;16.20;;;;;6.95;43.48;99137.69;6146963;28;96552;-56
2023/02/27 01:01:39;;;;;;;;;14.60;14.20;;;;;6.88;43.00;99137.66;6143713;28;96467;-57
2023/02/27 01:04:42;;;;;;;;;15.00;14.00;;;;;6.74;43.02;99143.91;6163822;28;96554;-57
2023/02/27 01:07:46;;;;;;;;;15.00;13.00;;;;;6.83;42.98;99147.28;6159971;28;96348;-56
2023/02/27 01:10:50;;;;;;;;;16.33;14.00;;;;;6.84;42.95;99155.09;6153708;28;96516;-56
2023/02/27 01:13:54;;;;;;;;;16.00;15.00;;;;;6.74;42.93;99135.88;6139826;28;96327;-56
2023/02/27 01:16:58;;;;;;;;;15.50;14.50;;;;;6.77;42.88;99148.03;6121441;28;98710;-56
2023/02/27 01:20:01;;;;;;;;;16.40;16.00;;;;;6.82;42.69;99148.28;6122618;28;96620;-56
2023/02/27 01:23:04;;;;;;;;;16.00;15.00;;;;;6.82;42.54;99154.47;6122525;28;96638;-56
2023/02/27 01:26:09;;;;;;;;;11.00;11.00;;;;;6.80;42.68;99159.19;6130533;28;96190;-56
2023/02/27 01:29:14;;;;;;;;;11.75;10.00;;;;;6.84;42.08;99171.19;6137372;28;96760;-57
2023/02/27 01:32:17;;;;;;;;;14.60;12.20;;;;;6.85;42.26;99170.16;6131505;28;96613;-58
2023/02/27 01:35:21;;;;;;;;;13.00;12.00;;;;;6.82;41.76;99172.41;6113974;28;96654;-56
2023/02/27 01:38:25;;;;;;;;;12.80;11.80;;;;;6.81;41.77;99170.75;6154236;28;96694;-57
2023/02/27 01:41:30;;;;;;;;;11.00;10.80;;;;;6.77;41.64;99169.47;6158689;28;96748;-57
2023/02/27 01:45:16;;;;;;;;;11.80;10.80;;;;;6.79;41.57;99173.59;6134413;28;96456;-57
2023/02/27 01:48:26;;;;;;;;;14.60;13.20;;;;;6.77;41.39;99181.03;6136475;28;97499;-57
2023/02/27 01:51:34;;;;;;;;;13.00;12.75;;;;;6.75;41.13;99176.84;6156312;28;96218;-56
2023/02/27 01:54:42;;;;;;;;;11.00;10.00;;;;;6.72;41.15;99172.72;6134195;28;96926;-56
2023/02/27 01:57:47;;;;;;;;;8.50;7.50;;;;;6.43;41.41;99132.63;6163259;28;96270;-56
2023/02/27 02:00:50;;;;;;;;;10.00;10.00;;;;;6.74;41.62;99183.25;6132820;28;96371;-56
2023/02/27 02:04:01;;;;;;;;;10.20;9.20;;;;;6.75;41.73;99185.72;6138089;28;96228;-56
2023/02/27 02:07:10;;;;;;;;;7.25;7.25;;;;;6.73;41.59;99185.09;6153914;28;96233;-57
2023/02/27 02:10:16;;;;;;;;;9.00;8.60;;;;;6.78;41.37;99177.34;6148728;28;97002;-56
2023/02/27 02:13:20;;;;;;;;;8.40;8.40;;;;;6.78;40.99;99165.78;6129164;28;96177;-57
2023/02/27 02:16:43;;;;;;;;;13.00;12.40;;;;;6.73;41.36;99171.72;6149516;28;96310;-56
2023/02/27 02:20:22;;;;;;;;;10.60;10.00;;;;;6.72;40.80;99163.84;6145926;28;97604;-57
2023/02/27 02:23:57;;;;;;;;;8.50;8.00;;;;;6.65;40.55;99166.44;6131411;28;96251;-56
2023/02/27 02:27:17;;;;;;;;;9.00;8.00;;;;;6.64;40.45;99163.97;6141808;28;96314;-56
2023/02/27 02:30:58;;;;;;;;;9.00;7.00;;;;;6.53;40.23;99176.03;6133686;28;96676;-57
2023/02/27 02:34:31;;;;;;;;;11.60;9.60;;;;;6.58;40.20;99187.00;6147993;28;96519;-56
2023/02/27 02:38:12;;;;;;;;;6.00;5.00;;;;;6.49;40.46;99188.97;6124429;28;98448;-58
2023/02/27 02:41:24;;;;;;;;;7.80;6.20;;;;;6.20;40.27;99154.22;6154997;28;96237;-56
2023/02/27 02:44:38;;;;;;;;;6.20;6.00;;;;;6.39;40.42;99185.75;6150170;28;96311;-56
2023/02/27 02:47:56;;;;;;;;;8.00;7.50;;;;;6.33;40.12;99178.47;6128881;28;96797;-56
2023/02/27 02:51:08;;;;;;;;;9.00;9.00;;;;;6.29;40.14;99190.56;6130817;28;96251;-56
2023/02/27 02:54:17;;;;;;;;;10.50;9.50;;;;;6.22;40.05;99203.03;6143505;28;96237;-56
2023/02/27 02:57:29;;;;;;;;;9.80;9.00;;;;;6.27;39.99;99213.19;6120777;28;96805;-57
2023/02/27 03:00:35;;;;;;;;;8.50;8.00;;;;;6.30;40.08;99210.16;6132443;28;98491;-56
2023/02/27 03:03:45;;;;;;;;;7.00;6.75;;;;;6.30;40.18;99215.50;6141101;28;96238;-57
2023/02/27 03:06:55;;;;;;;;;7.60;7.00;;;;;6.31;40.16;99211.78;6118094;28;96676;-56
2023/02/27 03:10:05;;;;;;;;;8.60;7.60;;;;;6.27;40.43;99208.66;6138777;28;96229;-56
2023/02/27 03:13:14;;;;;;;;;9.40;7.00;;;;;6.24;40.21;99216.22;6153912;28;96277;-56
2023/02/27 03:16:23;;;;;;;;;7.20;6.80;;;;;6.28;39.74;99218.34;6130511;28;96227;-59
2023/02/27 03:19:31;;;;;;;;;7.00;6.00;;;;;6.23;39.95;99214.56;6144713;28;98293;-56
2023/02/27 03:22:37;;;;;;;;;6.60;5.60;;;;;6.14;39.72;99204.97;6145227;28;96417;-58
2023/02/27 03:25:45;;;;;;;;;7.00;7.00;;;;;6.26;39.84;99231.09;6112659;28;97121;-57
2023/02/27 03:28:55;;;;;;;;;7.60;7.00;;;;;6.29;39.35;99233.41;6125552;28;97794;-56
2023/02/27 03:32:04;;;;;;;;;5.60;4.00;;;;;6.26;39.27;99236.44;6138239;28;96261;-56
2023/02/27 03:35:10;;;;;;;;;5.00;5.00;;;;;6.25;38.92;99233.97;6136899;28;96303;-57
2023/02/27 03:38:22;;;;;;;;;8.20;7.80;;;;;6.28;38.95;99250.47;6133240;28;96672;-56
2023/02/27 03:41:30;;;;;;;;;7.00;7.00;;;;;6.32;38.45;99246.41;6146741;28;96212;-57
2023/02/27 03:45:00;;;;;;;;;6.00;5.20;;;;;6.30;38.05;99232.41;6138424;28;96875;-57
2023/02/27 03:48:05;;;;;;;;;7.60;7.00;;;;;6.39;38.24;99247.34;6148112;28;96237;-56
2023/02/27 03:51:09;;;;;;;;;5.00;4.00;;;;;6.39;38.01;99242.00;6148161;28;96624;-57
2023/02/27 03:54:15;;;;;;;;;7.00;6.40;;;;;6.41;37.52;99257.84;6159874;28;96303;-57
2023/02/27 03:57:19;;;;;;;;;4.00;4.00;;;;;6.40;37.80;99259.69;6149246;28;96201;-56
2023/02/27 04:00:26;;;;;;;;;4.80;4.00;;;;;6.40;37.33;99267.72;6138529;28;96264;-56
2023/02/27 04:03:32;;;;;;;;;5.40;4.40;;;;;6.44;36.90;99268.22;6158961;28;96755;-57
2023/02/27 04:10:20;;;;;;;;;6.60;6.00;;;;;6.46;36.81;99271.50;6131963;28;96599;-57
2023/02/27 04:13:40;;;;;;;;;4.60;4.60;;;;;6.42;35.98;99276.41;6132531;28;96230;-56
2023/02/27 04:17:00;;;;;;;;;5.00;4.00;;;;;6.37;35.92;99280.66;6135886;28;96635;-57
2023/02/27 04:20:35;;;;;;;;;4.00;4.00;;;;;6.39;35.95;99287.50;6140470;28;96242;-57
2023/02/27 04:23:43;;;;;;;;;5.50;5.50;;;;;6.42;36.05;99287.13;6139078;28;99234;-57
2023/02/27 04:26:51;;;;;;;;;7.00;6.00;;;;;6.47;35.92;99292.75;6137159;28;96128;-57
2023/02/27 04:30:00;;;;;;;;;5.00;4.00;;;;;6.50;36.00;99295.06;6123414;28;97032;-56
2023/02/27 04:33:12;;;;;;;;;5.00;5.00;;;;;6.45;35.56;99293.97;6155646;28;96366;-56
2023/02/27 04:36:21;;;;;;;;;3.60;3.60;;;;;6.47;35.23;99298.13;6150863;28;96702;-56
2023/02/27 04:39:28;;;;;;;;;5.00;5.00;;;;;6.48;35.25;99301.63;6147946;28;97609;-57
2023/02/27 04:42:35;;;;;;;;;6.60;6.60;;;;;6.40;35.12;99299.06;6164750;28;96394;-56
2023/02/27 04:45:41;;;;;;;;;6.60;6.00;;;;;6.40;35.47;99304.41;6127433;28;98027;-58
2023/02/27 04:48:54;;;;;;;;;5.40;5.40;;;;;6.37;35.27;99296.75;6119613;28;96625;-57
2023/02/27 04:52:02;;;;;;;;;7.20;7.20;;;;;6.24;35.38;99291.19;6159452;28;96762;-56
2023/02/27 04:55:11;;;;;;;;;3.00;3.00;;;;;6.35;35.29;99299.59;6157177;28;96491;-56
2023/02/27 04:58:19;;;;;;;;;7.40;7.40;;;;;6.33;35.35;99298.97;6150544;28;96234;-56
2023/02/27 05:01:29;;;;;;;;;4.40;4.40;;;;;6.35;35.13;99302.28;6131411;28;97188;-56
2023/02/27 05:04:39;;;;;;;;;6.00;5.00;;;;;6.36;35.06;99303.09;6154385;28;96294;-56
2023/02/27 05:07:48;;;;;;;;;6.60;5.00;;;;;6.35;34.62;99309.50;6161628;28;96420;-57
2023/02/27 05:10:58;;;;;;;;;4.00;3.20;;;;;6.30;34.27;99291.31;6154669;28;96478;-56
2023/02/27 05:14:10;;;;;;;;;4.75;4.00;;;;;6.36;33.49;99316.50;6156792;28;96594;-56
2023/02/27 05:17:18;;;;;;;;;5.40;5.40;;;;;6.31;33.53;99310.84;6157442;28;96834;-57
2023/02/27 05:20:27;;;;;;;;;5.40;5.40;;;;;6.30;33.73;99314.56;6155604;28;96296;-57
2023/02/27 05:23:38;;;;;;;;;6.00;6.00;;;;;6.38;33.69;99323.34;6141336;28;98224;-56
2023/02/27 05:27:02;;;;;;;;;5.60;5.60;;;;;6.43;33.71;99325.47;6164634;28;96245;-57
2023/02/27 05:30:12;;;;;;;;;7.00;7.00;;;;;6.42;33.60;99329.16;6146330;28;98254;-56
2023/02/27 05:33:21;;;;;;;;;4.00;4.00;;;;;6.46;33.87;99325.09;6156475;28;96303;-56
2023/02/27 05:36:32;;;;;;;;;5.00;4.00;;;;;6.49;33.93;99328.25;6157212;28;96924;-57
2023/02/27 05:39:39;;;;;;;;;4.25;4.25;;;;;6.52;34.34;99333.22;6162967;28;96324;-57
2023/02/27 05:42:49;;;;;;;;;4.20;4.20;;;;;6.51;34.06;99325.34;6158995;28;96250;-57
2023/02/27 05:45:59;;;;;;;;;6.00;6.00;;;;;6.59;34.29;99335.16;6151217;28;96374;-57
2023/02/27 05:49:07;;;;;;;;;5.00;5.00;;;;;6.62;34.45;99343.66;6125924;28;96530;-57
2023/02/27 05:52:18;;;;;;;;;5.00;5.00;;;;;6.63;34.28;99337.28;6157399;28;96287;-57
2023/02/27 05:55:27;;;;;;;;;4.20;3.00;;;;;6.60;34.09;99329.59;6164801;28;97696;-57
2023/02/27 05:58:36;;;;;;;;;5.00;5.00;;;;;6.58;34.48;99347.72;6135343;28;96368;-56
2023/02/27 06:01:39;;;;;;;;;3.00;3.00;;;;;6.53;34.29;99359.00;6143519;28;96649;-57
2023/02/27 06:04:43;;;;;;;;;4.80;4.00;;;;;6.52;34.86;99348.47;6164082;28;96227;-57
2023/02/27 06:07:47;;;;;;;;;6.00;5.60;;;;;6.55;34.87;99352.63;6147887;28;97015;-57
2023/02/27 06:10:51;;;;;;;;;4.60;4.20;;;;;6.61;35.16;99349.19;6149945;28;96598;-56
2023/02/27 06:13:54;;;;;;;;;3.20;3.20;;;;;6.65;35.02;99355.84;6138296;28;96862;-57
2023/02/27 06:16:57;;;;;;;;;5.60;5.00;;;;;6.67;35.34;99365.38;6153913;28;96502;-56
2023/02/27 06:20:02;;;;;;;;;6.00;5.00;;;;;6.73;35.38;99364.63;6138985;28;98512;-56
2023/02/27 06:23:07;;;;;;;;;4.80;3.80;;;;;6.77;35.52;99367.75;6154032;28;97579;-57
2023/02/27 06:26:13;;;;;;;;;7.00;7.00;;;;;6.77;35.79;99365.91;6153939;28;96409;-56
2023/02/27 06:29:16;;;;;;;;;5.40;5.40;;;;;6.84;36.47;99368.69;6135064;28;96540;-56
2023/02/27 06:32:20;;;;;;;;;7.00;7.00;;;;;6.88;36.29;99368.13;6163388;28;96268;-57
2023/02/27 06:35:24;;;;;;;;;7.00;6.00;;;;;6.93;36.53;99365.72;6145249;28;96143;-57
2023/02/27 06:38:29;;;;;;;;;10.00;9.00;;;;;7.02;37.02;99384.38;6160781;28;96452;-56
2023/02/27 06:41:32;;;;;;;;;8.00;7.00;;;;;6.95;37.49;99355.63;6128112;28;98446;-56
2023/02/27 06:44:36;;;;;;;;;9.00;8.60;;;;;7.13;37.45;99376.72;6120511;28;97053;-56
2023/02/27 06:47:40;;;;;;;;;7.00;6.60;;;;;7.17;37.79;99378.00;6157824;28;97047;-62
2023/02/27 06:50:43;;;;;;;;;5.80;5.80;;;;;7.25;37.96;99387.75;6116510;28;97025;-62
2023/02/27 06:53:48;;;;;;;;;8.00;8.00;;;;;7.27;38.15;99389.25;6156328;28;96869;-63
2023/02/27 06:56:51;;;;;;;;;8.00;7.00;;;;;7.15;38.22;99376.50;6135305;28;98638;-63
2023/02/27 06:59:55;;;;;;;;;7.00;7.00;;;;;7.22;39.08;99391.66;6144414;28;96197;-63
2023/02/27 07:02:59;;;;;;;;;7.00;6.00;;;;;7.23;38.24;99389.81;6162786;28;97108;-63
2023/02/27 07:06:03;;;;;;;;;4.00;3.75;;;;;7.26;38.24;99395.63;6126815;28;96736;-63
2023/02/27 07:09:08;;;;;;;;;8.50;8.00;;;;;7.29;38.68;99405.97;6127094;28;96926;-63
2023/02/27 07:12:11;;;;;;;;;8.00;8.00;;;;;7.28;39.13;99403.50;6129978;28;96393;-63
2023/02/27 07:15:14;;;;;;;;;10.00;8.60;;;;;7.26;39.47;99397.47;6148988;28;97121;-63
2023/02/27 07:18:18;;;;;;;;;7.00;6.00;;;;;7.17;39.66;99390.56;6165233;28;97242;-62
2023/02/27 07:21:21;;;;;;;;;7.75;7.75;;;;;7.12;39.85;99404.53;6159024;28;99437;-63
2023/02/27 07:24:26;;;;;;;;;8.00;8.00;;;;;7.10;39.88;99414.59;6130314;28;98266;-63
2023/02/27 07:27:30;;;;;;;;;7.00;6.00;;;;;7.09;40.37;99414.78;6166179;28;96833;-64
2023/02/27 07:30:33;;;;;;;;;8.80;7.00;;;;;7.07;40.72;99414.16;6137933;28;96858;-63
2023/02/27 07:33:36;;;;;;;;;10.25;9.75;;;;;7.15;40.54;99416.72;6140573;28;98908;-64
2023/02/27 07:36:40;;;;;;;;;8.50;8.00;;;;;7.16;40.44;99421.91;6136511;28;96585;-64
2023/02/27 07:39:45;;;;;;;;;7.00;7.00;;;;;7.23;40.58;99420.13;6145084;28;96641;-63
2023/02/27 07:42:48;;;;;;;;;8.60;7.60;;;;;7.30;40.46;99429.09;6153703;28;96565;-63
2023/02/27 07:45:54;;;;;;;;;9.00;8.20;;;;;7.25;40.39;99426.13;6152254;28;96280;-63
2023/02/27 07:48:58;;;;;;;;;8.20;7.80;;;;;7.36;40.57;99431.03;6139690;28;96593;-63
2023/02/27 07:52:01;;;;;;;;;10.40;9.40;;;;;7.32;40.55;99431.59;6152777;28;96190;-63
2023/02/27 07:55:07;;;;;;;;;10.60;10.00;;;;;7.20;40.58;99441.13;6135043;28;97221;-64
2023/02/27 07:58:10;;;;;;;;;10.00;9.00;;;;;7.20;40.33;99438.44;6149888;28;96250;-64
2023/02/27 08:01:13;;;;;;;;;8.00;7.25;;;;;7.07;41.21;99447.16;6149829;28;96779;-63
2023/02/27 08:04:17;;;;;;;;;9.20;8.20;;;;;7.31;40.88;99438.81;6156841;28;96429;-63
2023/02/27 08:07:20;;;;;;;;;7.50;7.50;;;;;7.50;40.55;99444.59;6157715;28;96281;-64
2023/02/27 08:10:25;;;;;;;;;9.40;9.00;;;;;7.67;38.89;99441.47;6133215;28;96775;-63
2023/02/27 08:13:28;;;;;;;;;8.25;8.00;;;;;7.95;38.45;99444.28;6147736;28;96244;-63
2023/02/27 08:16:52;;;;;;;;;8.00;8.00;;;;;8.20;37.64;99440.19;6139262;28;98610;-64
2023/02/27 08:19:55;;;;;;;;;9.00;8.00;;;;;8.37;37.55;99439.94;6147890;28;96478;-63
2023/02/27 08:22:59;;;;;;;;;7.00;7.00;;;;;8.54;37.52;99452.06;6146708;28;97190;-64
2023/02/27 08:26:04;;;;;;;;;4.25;4.25;;;;;8.58;35.66;99467.59;6165037;28;96311;-63
2023/02/27 08:29:08;;;;;;;;;5.00;5.00;;;;;8.69;35.72;99469.78;6147894;28;96624;-64
2023/02/27 08:32:13;;;;;;;;;6.00;5.00;;;;;8.62;34.77;99468.03;6140616;28;96264;-64
2023/02/27 08:35:17;;;;;;;;;8.00;7.00;;;;;8.72;35.30;99476.59;6143291;28;96335;-63
2023/02/27 08:38:28;;;;;;;;;5.20;5.20;;;;;8.85;34.86;99470.47;6162236;28;96378;-64
2023/02/27 08:41:33;;;;;;;;;6.00;5.00;;;;;9.08;33.70;99471.91;6164748;28;97207;-63
2023/02/27 08:44:37;;;;;;;;;7.00;7.00;;;;;9.32;33.50;99467.88;6146965;28;98206;-63
2023/02/27 08:47:41;;;;;;;;;6.00;5.00;;;;;9.53;33.09;99464.22;6146775;28;96318;-62
2023/02/27 08:50:45;;;;;;;;;5.40;5.00;;;;;9.77;32.16;99466.41;6164160;28;96222;-63
2023/02/27 08:53:49;;;;;;;;;8.00;7.60;;;;;10.03;32.18;99473.72;6162256;28;97163;-63
2023/02/27 08:56:53;;;;;;;;;7.00;7.00;;;;;10.33;32.31;99477.75;6147156;28;96320;-64
2023/02/27 08:59:57;;;;;;;;;5.00;3.00;;;;;10.56;31.52;99479.19;6130968;28;96873;-64
2023/02/27 09:03:01;;;;;;;;;7.00;6.00;;;;;10.72;30.31;99486.88;6150068;28;96840;-64
2023/02/27 09:06:04;;;;;;;;;4.00;4.00;;;;;10.94;30.17;99484.81;6156603;28;96596;-63
2023/02/27 09:09:08;;;;;;;;;6.00;5.20;;;;;11.13;29.71;99482.06;6156171;28;96608;-64
2023/02/27 09:12:13;;;;;;;;;5.00;5.00;;;;;11.37;29.56;99493.22;6148653;28;96385;-63
2023/02/27 09:15:16;;;;;;;;;4.80;4.80;;;;;11.50;28.99;99487.78;6148384;28;96280;-63
2023/02/27 09:18:19;;;;;;;;;6.00;6.00;;;;;11.60;29.22;99489.00;6155037;28;96585;-63
2023/02/27 09:21:23;;;;;;;;;7.50;7.50;;;;;11.68;28.92;99494.13;6140210;28;96727;-58
2023/02/27 09:24:27;;;;;;;;;7.25;7.00;;;;;11.81;28.98;99497.88;6145306;28;96470;-59
2023/02/27 09:27:31;;;;;;;;;6.00;5.80;;;;;11.84;28.84;99502.84;6162386;28;96360;-58
2023/02/27 09:30:35;;;;;;;;;6.75;6.75;;;;;11.65;28.18;99509.94;6153220;28;96297;-57
2023/02/27 09:33:39;;;;;;;;;6.00;6.00;;;;;11.60;28.36;99509.75;6155951;28;96591;-58
2023/02/27 09:36:42;;;;;;;;;7.40;7.40;;;;;11.75;28.49;99513.06;6153064;28;96275;-58
2023/02/27 09:39:46;;;;;;;;;7.00;6.00;;;;;11.99;27.80;99512.34;6148288;28;96249;-58
2023/02/27 09:42:53;;;;;;;;;7.20;7.20;;;;;11.76;27.82;99498.53;6150728;28;97272;-58
2023/02/27 09:45:59;;;;;;;;;5.40;5.40;;;;;11.75;28.10;99512.22;6161844;28;96445;-58
2023/02/27 09:49:03;;;;;;;;;6.00;5.40;;;;;11.80;27.78;99513.25;6154616;28;96539;-59
2023/02/27 09:52:12;;;;;;;;;5.00;4.00;;;;;11.65;27.86;99508.09;6163394;28;96253;-58
2023/02/27 09:55:19;;;;;;;;;7.00;6.00;;;;;11.15;27.80;99504.28;6146182;28;96220;-57
2023/02/27 09:58:34;;;;;;;;;7.60;7.60;;;;;11.33;29.02;99519.81;6146659;28;96471;-58
2023/02/27 10:01:45;;;;;;;;;10.00;9.00;;;;;11.13;28.60;99516.34;6160742;28;96826;-57
2023/02/27 10:04:55;;;;;;;;;6.00;6.00;;;;;11.06;28.42;99521.72;6138067;28;99163;-58
2023/02/27 10:08:08;;;;;;;;;8.00;7.00;;;;;10.77;28.48;99528.38;6147986;28;97703;-57
2023/02/27 10:11:17;;;;;;;;;7.00;6.00;;;;;10.74;29.41;99519.88;6145163;28;96691;-58
2023/02/27 10:14:32;;;;;;;;;6.40;5.60;;;;;10.82;29.09;99528.59;6149532;28;96542;-58
2023/02/27 10:17:39;;;;;;;;;4.40;4.00;;;;;10.63;28.54;99529.41;6158901;28;96090;-57
2023/02/27 10:20:51;;;;;;;;;6.60;6.00;;;;;10.48;28.70;99509.91;6164096;28;96819;-57
2023/02/27 10:23:59;;;;;;;;;6.00;6.00;;;;;10.62;29.79;99533.13;6129857;28;96789;-57
2023/02/27 10:27:06;;;;;;;;;7.00;6.00;;;;;10.65;30.01;99529.22;6121524;28;96675;-57
2023/02/27 10:30:21;;;;;;;;;6.00;5.00;;;;;10.55;30.05;99516.16;6147942;28;96356;-58
2023/02/27 10:33:37;;;;;;;;;7.00;6.60;;;;;10.65;30.17;99519.22;6147978;28;96283;-57
2023/02/27 10:36:40;;;;;;;;;6.00;6.00;;;;;10.63;30.48;99534.81;6133345;28;98254;-57
2023/02/27 10:39:47;;;;;;;;;5.00;5.00;;;;;10.33;30.28;99525.44;6155319;28;96444;-57
2023/02/27 10:42:53;;;;;;;;;7.00;6.00;;;;;10.12;31.16;99522.84;6134705;28;96256;-57
2023/02/27 10:46:01;;;;;;;;;6.40;6.40;;;;;9.97;31.45;99531.09;6143904;28;96882;-57
2023/02/27 10:49:15;;;;;;;;;6.00;5.75;;;;;9.74;31.87;99528.72;6145394;28;97319;-57
2023/02/27 10:52:21;;;;;;;;;5.00;5.00;;;;;9.60;32.55;99537.78;6158765;28;96572;-58
2023/02/27 10:55:27;;;;;;;;;7.00;6.00;;;;;9.41;32.60;99533.13;6163359;28;96264;-57
2023/02/27 10:58:32;;;;;;;;;7.50;7.50;;;;;9.19;33.66;99537.75;6134615;28;96328;-57
2023/02/27 11:01:48;;;;;;;;;5.00;4.00;;;;;9.05;34.37;99538.69;6143206;28;96304;-57
2023/02/27 11:04:53;;;;;;;;;8.00;8.00;;;;;8.93;35.02;99542.94;6149552;28;96753;-58
2023/02/27 11:08:10;;;;;;;;;8.00;7.00;;;;;8.87;35.63;99541.88;6161007;28;96249;-57
2023/02/27 11:11:13;;;;;;;;;7.00;6.20;;;;;8.76;36.04;99550.44;6155988;28;96694;-57
2023/02/27 11:14:28;;;;;;;;;8.00;8.00;;;;;8.68;36.96;99540.69;6145393;28;96242;-57
2023/02/27 11:17:35;;;;;;;;;9.00;7.40;;;;;8.76;38.08;99549.63;6160382;28;97314;-57
2023/02/27 11:20:42;;;;;;;;;9.60;9.00;;;;;8.75;38.61;99551.47;6132932;28;98406;-57
2023/02/27 11:23:57;;;;;;;;;7.00;6.00;;;;;8.64;39.47;99552.84;6163444;28;96243;-57
2023/02/27 11:27:04;;;;;;;;;8.00;7.40;;;;;8.53;40.00;99552.53;6147883;28;96617;-57
2023/02/27 11:30:21;;;;;;;;;8.00;7.00;;;;;8.41;40.56;99551.34;6155134;28;96333;-58
2023/02/27 11:33:28;;;;;;;;;7.00;6.50;;;;;8.34;41.14;99545.09;6139807;28;96532;-58
2023/02/27 11:36:44;;;;;;;;;9.00;7.00;;;;;8.11;41.17;99547.94;6161845;28;96574;-57
2023/02/27 11:39:50;;;;;;;;;10.00;9.40;;;;;8.04;41.34;99550.53;6144711;28;96594;-57
2023/02/27 11:42:57;;;;;;;;;13.40;12.40;;;;;7.88;41.80;99547.22;6148251;28;97098;-58
2023/02/27 11:46:04;;;;;;;;;13.80;12.40;;;;;7.70;42.35;99550.31;6140601;28;96813;-57
2023/02/27 11:49:35;;;;;;;;;10.00;9.00;;;;;7.67;42.61;99543.47;6148230;28;96970;-58
2023/02/27 11:52:47;;;;;;;;;13.80;12.80;;;;;7.48;43.25;99556.66;6151192;28;96848;-58
2023/02/27 11:55:55;;;;;;;;;11.00;10.40;;;;;7.38;43.55;99546.16;6132119;28;96689;-57
2023/02/27 11:59:04;;;;;;;;;10.60;10.00;;;;;7.27;43.97;99544.81;6143137;28;96349;-58
2023/02/27 12:02:19;;;;;;;;;11.00;10.40;;;;;7.31;43.88;99540.72;6162508;28;96408;-57
2023/02/27 12:05:29;;;;;;;;;11.80;10.80;;;;;7.19;43.72;99534.16;6140790;28;98545;-57
2023/02/27 12:08:41;;;;;;;;;11.00;10.25;;;;;7.36;43.84;99553.59;6165532;28;96227;-57
2023/02/27 12:11:47;;;;;;;;;9.00;8.00;;;;;7.47;43.45;99547.78;6165600;28;96075;-57
2023/02/27 12:14:59;;;;;;;;;12.00;11.60;;;;;7.47;43.68;99546.94;6134991;28;96392;-57
2023/02/27 12:18:16;;;;;;;;;11.00;10.75;;;;;7.51;43.34;99549.06;6147172;28;98099;-57
2023/02/27 12:21:23;;;;;;;;;13.25;12.25;;;;;7.37;43.70;99544.53;6147151;28;96646;-58
2023/02/27 12:24:31;;;;;;;;;14.00;13.00;;;;;7.50;43.09;99551.91;6155413;28;96312;-58
2023/02/27 12:27:44;;;;;;;;;15.00;14.00;;;;;7.35;43.53;99555.44;6139537;28;96621;-58
2023/02/27 12:31:00;;;;;;;;;13.67;13.00;;;;;7.37;43.05;99556.09;6154336;28;96350;-57
2023/02/27 12:34:09;;;;;;;;;11.00;10.75;;;;;7.40;41.95;99549.50;6130737;28;96296;-57
2023/02/27 12:37:18;;;;;;;;;11.40;11.00;;;;;7.49;42.12;99577.06;6157994;28;96325;-58
2023/02/27 12:40:29;;;;;;;;;12.00;11.60;;;;;7.66;42.19;99563.28;6155957;28;96962;-58
2023/02/27 12:43:42;;;;;;;;;11.00;11.00;;;;;7.59;41.98;99574.94;6156255;28;96815;-57
2023/02/27 12:46:58;;;;;;;;;16.00;14.00;;;;;7.73;42.40;99568.72;6153258;28;96457;-57
2023/02/27 12:50:05;;;;;;;;;12.75;12.75;;;;;7.61;42.68;99576.44;6149439;28;96303;-57
2023/02/27 12:53:37;;;;;;;;;11.00;11.00;;;;;7.77;42.47;99580.78;6123242;28;96332;-57
2023/02/27 12:56:54;;;;;;;;;13.20;12.60;;;;;7.54;42.49;99578.19;6152191;28;96335;-57
2023/02/27 13:00:10;;;;;;;;;13.80;12.00;;;;;7.71;42.97;99581.53;6146963;28;96612;-58
2023/02/27 13:03:18;;;;;;;;;14.00;13.60;;;;;7.73;42.88;99569.56;6146164;28;96878;-57
2023/02/27 13:06:29;;;;;;;;;15.00;14.00;;;;;7.79;42.69;99587.63;6149470;28;96232;-58
2023/02/27 13:09:40;;;;;;;;;12.00;12.00;;;;;7.67;43.12;99586.41;6129896;28;98514;-57
2023/02/27 13:12:50;;;;;;;;;11.80;11.20;;;;;7.41;43.76;99586.06;6140933;28;96717;-58
2023/02/27 13:15:58;;;;;;;;;13.40;13.00;;;;;7.47;43.88;99588.00;6165998;28;96802;-57
2023/02/27 13:19:06;;;;;;;;;10.00;9.50;;;;;7.48;43.46;99595.00;6166633;28;96459;-57
2023/02/27 13:22:17;;;;;;;;;14.00;13.50;;;;;7.50;43.02;99584.94;6132793;28;96623;-57
2023/02/27 13:25:24;;;;;;;;;12.80;12.80;;;;;7.56;42.74;99594.09;6147612;28;98324;-58
2023/02/27 13:28:30;;;;;;;;;14.00;13.00;;;;;7.58;42.90;99595.56;6147268;28;98463;-57
2023/02/27 13:31:42;;;;;;;;;11.00;10.00;;;;;7.58;43.12;99592.91;6151844;28;97972;-57
2023/02/27 13:34:51;;;;;;;;;13.00;12.00;;;;;7.68;43.15;99587.25;6125306;28;96596;-57
2023/02/27 13:37:57;;;;;;;;;14.50;12.50;;;;;7.63;42.84;99595.84;6151629;28;96249;-57
2023/02/27 13:41:38;;;;;;;;;11.20;10.00;;;;;7.68;42.95;99593.44;6165557;28;96800;-57
2023/02/27 13:44:42;;;;;;;;;11.00;10.00;;;;;7.78;43.05;99594.00;6153934;28;96507;-57
2023/02/27 13:47:48;;;;;;;;;13.40;12.40;;;;;7.77;43.17;99581.59;6130925;28;98855;-57
2023/02/27 13:50:52;;;;;;;;;13.00;12.00;;;;;7.85;42.82;99583.34;6164839;28;96439;-57
2023/02/27 13:54:18;;;;;;;;;14.00;13.00;;;;;7.90;42.66;99585.47;6164028;28;96277;-59
2023/02/27 13:57:25;;;;;;;;;13.40;12.40;;;;;7.97;42.49;99583.69;6154975;28;98954;-57
2023/02/27 14:00:31;;;;;;;;;13.00;11.40;;;;;8.07;42.01;99589.59;6133384;28;96276;-58
2023/02/27 14:03:34;;;;;;;;;14.00;13.00;;;;;8.09;41.08;99583.03;6149357;28;96216;-57
2023/02/27 14:06:45;;;;;;;;;10.00;9.00;;;;;7.89;40.72;99586.50;6146459;28;96619;-57
2023/02/27 14:09:51;;;;;;;;;12.00;11.00;;;;;8.09;41.24;99580.34;6131482;28;96290;-57
2023/02/27 14:12:58;;;;;;;;;13.00;12.00;;;;;8.12;40.79;99590.69;6150314;28;96492;-58
2023/02/27 14:16:02;;;;;;;;;13.50;12.00;;;;;8.23;41.33;99586.69;6157631;28;96499;-57
2023/02/27 14:19:27;;;;;;;;;12.75;11.75;;;;;8.16;40.92;99575.88;6139390;28;96441;-57
2023/02/27 14:22:53;;;;;;;;;14.00;13.80;;;;;8.22;40.58;99591.22;6151593;28;97492;-57
2023/02/27 14:26:14;;;;;;;;;10.00;9.75;;;;;8.24;40.34;99604.47;6150163;28;96310;-57
2023/02/27 14:29:22;;;;;;;;;12.40;12.20;;;;;8.26;40.05;99599.72;6147363;28;96252;-57
2023/02/27 14:32:32;;;;;;;;;12.40;11.40;;;;;8.25;40.20;99598.94;6164806;28;96243;-58
2023/02/27 14:35:36;;;;;;;;;10.20;10.20;;;;;7.97;40.02;99592.56;6163588;28;97870;-57
2023/02/27 14:38:39;;;;;;;;;9.50;9.00;;;;;8.10;40.11;99592.75;6146226;28;96621;-57
2023/02/27 14:41:51;;;;;;;;;12.00;11.00;;;;;8.08;39.81;99602.00;6160324;28;96271;-57
2023/02/27 14:44:56;;;;;;;;;14.80;13.80;;;;;7.93;40.13;99612.78;6136702;28;97013;-57
2023/02/27 14:48:00;;;;;;;;;13.20;12.00;;;;;7.94;40.35;99602.88;6115072;28;98381;-57
2023/02/27 14:51:03;;;;;;;;;11.50;10.50;;;;;7.98;40.45;99606.84;6114690;28;96627;-57